Time;durP1;ratioP1;P1;durP2;ratioP2;P2;SDS_P1;SDS_P2;PMS_P1;PMS_P2;Temp;Humidity;BMP_temperature;BMP_pressure;BME280_temperature;BME280_humidity;BME280_pressure;Samples;Min_cycle;Max_cycle;Signal;HPM_P1;HPM_P2
2021/11/13 00:02:24;;;;;;;10.93;7.97;;;6.50;99.90;;;;;;6204947;28;20474;-63
2021/11/13 00:05:27;;;;;;;11.70;8.43;;;6.50;99.90;;;;;;6223066;28;20488;-62
2021/11/13 00:08:30;;;;;;;11.93;8.00;;;6.50;99.90;;;;;;6243657;28;21142;-64
2021/11/13 00:11:35;;;;;;;11.17;7.63;;;6.40;99.90;;;;;;6247524;28;20779;-63
2021/11/13 00:14:39;;;;;;;9.23;7.10;;;6.40;99.90;;;;;;6250374;28;20470;-63
2021/11/13 00:17:42;;;;;;;9.97;7.93;;;6.50;99.90;;;;;;6243298;28;20476;-63
2021/11/13 00:20:47;;;;;;;10.07;8.23;;;6.50;99.90;;;;;;6205307;28;21003;-63
2021/11/13 00:23:50;;;;;;;14.30;7.80;;;6.50;99.90;;;;;;6219218;28;21003;-61
2021/11/13 00:26:55;;;;;;;7.83;6.90;;;6.50;99.90;;;;;;6226694;28;20495;-62
2021/11/13 00:29:58;;;;;;;9.93;7.27;;;6.50;99.90;;;;;;6227344;28;20472;-64
2021/11/13 00:33:02;;;;;;;8.67;7.10;;;6.50;99.90;;;;;;6218573;28;20483;-67
2021/11/13 00:36:06;;;;;;;8.97;7.10;;;6.50;99.90;;;;;;6225154;28;20492;-62
2021/11/13 00:39:09;;;;;;;11.67;8.40;;;6.50;99.90;;;;;;6222015;28;20484;-61
2021/11/13 00:42:13;;;;;;;9.63;7.30;;;6.50;99.90;;;;;;6223700;28;20488;-61
2021/11/13 00:45:17;;;;;;;12.50;7.27;;;6.50;99.90;;;;;;6226258;28;20476;-61
2021/11/13 00:48:20;;;;;;;10.60;7.93;;;6.50;99.90;;;;;;6223608;28;20483;-62
2021/11/13 00:51:23;;;;;;;10.17;7.80;;;6.50;99.90;;;;;;6226966;28;20479;-66
2021/11/13 00:54:27;;;;;;;8.90;7.37;;;6.50;99.90;;;;;;6225953;28;20487;-60
2021/11/13 00:57:31;;;;;;;12.00;7.77;;;6.50;99.90;;;;;;6226998;28;20870;-61
2021/11/13 01:00:34;;;;;;;8.63;6.73;;;6.40;99.90;;;;;;6226658;28;20487;-61
2021/11/13 01:03:38;;;;;;;10.90;7.97;;;6.40;99.90;;;;;;6223671;28;21016;-61
2021/11/13 01:06:41;;;;;;;11.20;8.10;;;6.30;99.90;;;;;;6232293;28;20467;-61
2021/11/13 01:09:44;;;;;;;9.63;8.07;;;6.20;99.90;;;;;;6217354;28;20799;-62
2021/11/13 01:12:50;;;;;;;12.77;8.90;;;6.20;99.90;;;;;;6223623;28;20472;-60
2021/11/13 01:15:55;;;;;;;11.70;9.03;;;6.20;99.90;;;;;;6227400;28;20503;-60
2021/11/13 01:18:58;;;;;;;10.43;8.13;;;6.20;99.90;;;;;;6220060;28;20478;-63
2021/11/13 01:22:01;;;;;;;13.37;9.67;;;6.20;99.90;;;;;;6210240;28;20480;-60
2021/11/13 01:25:05;;;;;;;9.90;8.10;;;6.20;99.90;;;;;;6217193;28;20455;-60
2021/11/13 01:28:10;;;;;;;9.70;7.40;;;6.20;99.90;;;;;;6227505;28;20444;-62
2021/11/13 01:31:14;;;;;;;10.33;8.00;;;6.30;99.90;;;;;;6216807;28;20449;-61
2021/11/13 01:34:18;;;;;;;10.10;8.60;;;6.40;99.90;;;;;;6214079;28;20735;-63
2021/11/13 01:37:21;;;;;;;10.33;8.23;;;6.40;99.90;;;;;;6216137;28;20465;-62
2021/11/13 01:40:26;;;;;;;9.83;7.47;;;6.50;99.90;;;;;;6212766;28;20460;-62
2021/11/13 01:43:33;;;;;;;11.03;8.10;;;6.50;99.90;;;;;;6215768;28;20480;-62
2021/11/13 01:46:37;;;;;;;12.40;8.80;;;6.50;99.90;;;;;;6214605;28;20827;-62
2021/11/13 01:49:40;;;;;;;13.00;8.73;;;6.50;99.90;;;;;;6213500;28;20845;-62
2021/11/13 01:52:44;;;;;;;11.30;8.20;;;6.50;99.90;;;;;;6213513;28;20503;-62
2021/11/13 01:55:47;;;;;;;9.60;8.60;;;6.50;99.90;;;;;;6213653;28;20476;-62
2021/11/13 01:58:54;;;;;;;12.20;7.90;;;6.60;99.90;;;;;;6215703;28;20465;-63
2021/11/13 02:01:57;;;;;;;10.90;8.73;;;6.50;99.90;;;;;;6216700;28;20473;-63
2021/11/13 02:05:00;;;;;;;10.53;8.80;;;6.40;99.90;;;;;;6217204;28;20479;-63
2021/11/13 02:08:03;;;;;;;12.23;8.63;;;6.50;99.90;;;;;;6215481;28;20530;-64
2021/11/13 02:11:06;;;;;;;11.33;8.50;;;6.50;99.90;;;;;;6215830;28;20474;-61
2021/11/13 02:14:11;;;;;;;9.73;7.77;;;6.40;99.90;;;;;;6215551;28;20530;-62
2021/11/13 02:17:14;;;;;;;10.33;7.47;;;6.20;99.90;;;;;;6212777;28;20475;-62
2021/11/13 02:20:25;;;;;;;10.00;8.07;;;6.20;99.90;;;;;;6207812;28;20953;-62
2021/11/13 02:23:28;;;;;;;11.67;8.90;;;6.10;99.90;;;;;;6201760;28;20479;-62
2021/11/13 02:26:32;;;;;;;11.37;8.30;;;6.10;99.90;;;;;;6202078;28;20469;-62
2021/11/13 02:29:35;;;;;;;9.20;7.87;;;6.20;99.90;;;;;;6202029;28;20495;-62
2021/11/13 02:32:39;;;;;;;10.87;7.90;;;6.20;99.90;;;;;;6202130;28;20465;-62
2021/11/13 02:35:44;;;;;;;9.13;7.53;;;6.20;99.90;;;;;;6201491;28;20477;-62
2021/11/13 02:38:53;;;;;;;12.27;8.20;;;6.20;99.90;;;;;;6201917;28;20473;-62
2021/11/13 02:41:57;;;;;;;8.40;7.47;;;6.20;99.90;;;;;;6201661;28;20956;-62
2021/11/13 02:45:00;;;;;;;9.87;7.87;;;6.20;99.90;;;;;;6201857;28;20477;-62
2021/11/13 02:48:05;;;;;;;9.50;6.97;;;6.10;99.90;;;;;;6197193;28;20481;-62
2021/11/13 02:51:11;;;;;;;12.53;9.20;;;6.10;99.90;;;;;;6201937;28;20473;-62
2021/11/13 02:54:14;;;;;;;12.67;8.07;;;6.10;99.90;;;;;;6201723;28;20487;-62
2021/11/13 02:57:17;;;;;;;11.47;8.70;;;6.00;99.90;;;;;;6201539;28;20488;-62
2021/11/13 03:00:23;;;;;;;11.37;7.23;;;6.10;99.90;;;;;;6201203;28;20981;-62
2021/11/13 03:03:27;;;;;;;11.57;8.00;;;6.10;99.90;;;;;;6201812;28;20473;-62
2021/11/13 03:06:32;;;;;;;10.03;8.10;;;6.20;99.90;;;;;;6201042;28;20845;-62
2021/11/13 03:09:35;;;;;;;9.73;7.87;;;6.20;99.90;;;;;;6201673;28;20480;-62
2021/11/13 03:12:39;;;;;;;9.07;7.53;;;6.20;99.90;;;;;;6201447;28;20468;-62
2021/11/13 03:15:42;;;;;;;14.60;8.37;;;6.20;99.90;;;;;;6201051;28;20488;-62
2021/11/13 03:18:45;;;;;;;7.63;6.50;;;6.30;99.90;;;;;;6201100;28;20477;-62
2021/11/13 03:21:49;;;;;;;6.60;5.70;;;6.30;99.90;;;;;;6200750;28;20485;-62
2021/11/13 03:24:53;;;;;;;8.03;5.63;;;6.30;99.90;;;;;;6201704;28;20483;-62
2021/11/13 03:27:59;;;;;;;10.00;7.07;;;6.20;99.90;;;;;;6200677;28;20487;-62
2021/11/13 03:31:03;;;;;;;6.40;5.80;;;6.20;99.90;;;;;;6201329;28;20508;-62
2021/11/13 03:34:06;;;;;;;6.53;5.80;;;6.20;99.90;;;;;;6201171;28;20449;-62
2021/11/13 03:37:11;;;;;;;8.43;6.10;;;6.20;99.90;;;;;;6201652;28;20476;-62
2021/11/13 03:40:14;;;;;;;8.10;6.53;;;6.20;99.90;;;;;;6200803;28;20485;-62
2021/11/13 03:43:18;;;;;;;8.07;6.90;;;6.20;99.90;;;;;;6201322;28;20468;-62
2021/11/13 03:46:22;;;;;;;9.73;6.93;;;6.20;99.90;;;;;;6200809;28;20460;-62
2021/11/13 03:49:25;;;;;;;8.00;7.20;;;6.20;99.90;;;;;;6201394;28;20468;-62
2021/11/13 03:52:29;;;;;;;6.97;5.50;;;6.30;99.90;;;;;;6205975;28;20960;-62
2021/11/13 03:55:33;;;;;;;8.40;6.23;;;6.30;99.90;;;;;;6205976;28;20468;-62
2021/11/13 03:58:36;;;;;;;7.80;5.93;;;6.20;99.90;;;;;;6206056;28;20472;-62
2021/11/13 04:01:39;;;;;;;8.33;5.77;;;6.20;99.90;;;;;;6205366;28;20472;-62
2021/11/13 04:04:43;;;;;;;10.63;7.00;;;6.20;99.90;;;;;;6205605;28;20476;-62
2021/11/13 04:07:49;;;;;;;9.50;5.70;;;6.20;99.90;;;;;;6205120;28;20479;-62
2021/11/13 04:10:53;;;;;;;7.30;5.00;;;6.10;99.90;;;;;;6205278;28;20853;-62
2021/11/13 04:13:56;;;;;;;7.50;5.73;;;6.10;99.90;;;;;;6205536;28;20480;-62
2021/11/13 04:16:59;;;;;;;5.97;5.10;;;6.20;99.90;;;;;;6205135;28;20485;-62
2021/11/13 04:20:02;;;;;;;9.73;5.87;;;6.20;99.90;;;;;;6205075;28;20484;-62
2021/11/13 04:23:07;;;;;;;6.87;5.23;;;6.30;99.90;;;;;;6205224;28;20500;-62
2021/11/13 04:26:10;;;;;;;7.83;6.17;;;6.30;99.90;;;;;;6204979;28;20813;-62
2021/11/13 04:29:13;;;;;;;8.03;6.37;;;6.40;99.90;;;;;;6205400;28;20487;-62
2021/11/13 04:32:17;;;;;;;8.07;6.03;;;6.50;99.90;;;;;;6204647;28;20793;-62
2021/11/13 04:35:22;;;;;;;7.70;5.80;;;6.40;99.90;;;;;;6204910;28;20491;-62
2021/11/13 04:38:28;;;;;;;8.37;6.10;;;6.50;99.90;;;;;;6205363;28;20485;-62
2021/11/13 04:41:32;;;;;;;7.90;4.93;;;6.50;99.90;;;;;;6204626;28;20483;-62
2021/11/13 04:44:36;;;;;;;5.97;4.63;;;6.60;99.90;;;;;;6205008;28;20479;-62
2021/11/13 04:47:39;;;;;;;8.07;6.17;;;6.70;99.90;;;;;;6204345;28;20477;-62
2021/11/13 04:50:42;;;;;;;6.00;4.60;;;6.70;99.90;;;;;;6203931;28;20809;-62
2021/11/13 04:53:46;;;;;;;5.60;4.80;;;6.80;99.90;;;;;;6204175;28;20534;-62
2021/11/13 04:56:50;;;;;;;6.83;5.50;;;6.80;99.90;;;;;;6195587;28;20500;-63
2021/11/13 04:59:53;;;;;;;8.27;5.50;;;6.70;99.90;;;;;;6206380;28;20477;-62
2021/11/13 05:02:57;;;;;;;7.90;5.93;;;6.70;99.90;;;;;;6217168;28;20479;-62
2021/11/13 05:06:01;;;;;;;8.20;5.93;;;6.80;99.90;;;;;;6228570;28;20487;-62
2021/11/13 05:09:06;;;;;;;8.20;5.20;;;6.80;99.90;;;;;;6228195;28;20476;-62
2021/11/13 05:12:09;;;;;;;7.50;5.57;;;6.80;99.90;;;;;;6228173;28;20483;-63
2021/11/13 05:15:13;;;;;;;8.23;6.10;;;6.80;99.90;;;;;;6228461;28;20591;-63
2021/11/13 05:18:16;;;;;;;7.63;6.13;;;6.80;99.90;;;;;;6228259;28;20947;-64
2021/11/13 05:21:19;;;;;;;8.80;6.57;;;6.80;99.90;;;;;;6227940;28;20486;-63
2021/11/13 05:24:23;;;;;;;8.33;7.10;;;6.80;99.90;;;;;;6228226;28;20467;-63
2021/11/13 05:27:27;;;;;;;7.37;6.00;;;6.80;99.90;;;;;;6227888;28;20963;-63
2021/11/13 05:30:30;;;;;;;8.10;5.67;;;6.80;99.90;;;;;;6227929;28;20967;-63
2021/11/13 05:33:33;;;;;;;7.17;6.20;;;6.80;99.90;;;;;;6227543;28;20541;-61
2021/11/13 05:36:38;;;;;;;7.87;6.30;;;6.80;99.90;;;;;;6228012;28;20987;-62
2021/11/13 05:39:43;;;;;;;7.67;6.03;;;6.70;99.90;;;;;;6227918;28;20475;-62
2021/11/13 05:42:47;;;;;;;10.27;7.10;;;6.60;99.90;;;;;;6227368;28;20483;-61
2021/11/13 05:45:50;;;;;;;8.10;5.43;;;6.60;99.90;;;;;;6227466;28;20490;-61
2021/11/13 05:48:53;;;;;;;8.20;5.33;;;6.50;99.90;;;;;;6227893;28;20483;-62
2021/11/13 05:51:56;;;;;;;10.43;7.97;;;6.50;99.90;;;;;;6227213;28;20486;-62
2021/11/13 05:55:01;;;;;;;8.87;6.20;;;6.40;99.90;;;;;;6226971;28;20474;-61
2021/11/13 05:58:04;;;;;;;8.50;6.23;;;6.40;99.90;;;;;;6223380;28;20460;-61
2021/11/13 06:01:07;;;;;;;7.63;5.83;;;6.40;99.90;;;;;;6227927;28;20448;-62
2021/11/13 06:04:11;;;;;;;8.63;5.60;;;6.40;99.90;;;;;;6227452;28;20447;-61
2021/11/13 06:07:34;;;;;;;6.77;5.40;;;6.30;99.90;;;;;;6227157;28;20513;-61
2021/11/13 06:10:39;;;;;;;10.27;6.93;;;6.40;99.90;;;;;;6225692;28;20472;-62
2021/11/13 06:13:42;;;;;;;8.17;5.87;;;6.50;99.90;;;;;;6226753;28;20467;-62
2021/11/13 06:16:45;;;;;;;8.00;5.83;;;6.50;99.90;;;;;;6226501;28;20472;-62
2021/11/13 06:19:50;;;;;;;7.07;5.77;;;6.40;99.90;;;;;;6226751;28;20923;-62
2021/11/13 06:22:54;;;;;;;11.30;5.80;;;6.50;99.90;;;;;;6227204;28;20495;-62
2021/11/13 06:25:58;;;;;;;8.73;6.43;;;6.50;99.90;;;;;;6226621;28;20490;-62
2021/11/13 06:29:01;;;;;;;9.70;6.73;;;6.50;99.90;;;;;;6226464;28;20812;-62
2021/11/13 06:32:05;;;;;;;7.87;5.67;;;6.60;99.90;;;;;;6226436;28;20475;-62
2021/11/13 06:35:10;;;;;;;7.23;5.93;;;6.60;99.90;;;;;;6226350;28;20509;-62
2021/11/13 06:38:13;;;;;;;8.53;6.50;;;6.70;99.90;;;;;;6226748;28;20468;-62
2021/11/13 06:41:18;;;;;;;10.60;5.83;;;6.70;99.90;;;;;;6226255;28;20848;-62
2021/11/13 06:44:22;;;;;;;8.90;6.23;;;6.70;99.90;;;;;;6226275;28;20491;-61
2021/11/13 06:47:25;;;;;;;9.40;6.87;;;6.70;99.90;;;;;;6226633;28;20487;-61
2021/11/13 06:50:28;;;;;;;9.07;6.67;;;6.80;99.90;;;;;;6226371;28;20472;-62
2021/11/13 06:53:31;;;;;;;8.60;6.23;;;6.90;99.90;;;;;;6226051;28;20952;-63
2021/11/13 06:56:35;;;;;;;8.23;6.13;;;6.90;99.90;;;;;;6226215;28;20475;-61
2021/11/13 06:59:39;;;;;;;9.13;5.57;;;7.00;99.90;;;;;;6226024;28;20480;-61
2021/11/13 07:02:42;;;;;;;10.03;7.47;;;7.10;99.90;;;;;;6225472;28;20475;-61
2021/11/13 07:05:45;;;;;;;12.90;7.77;;;7.10;99.90;;;;;;6225600;28;20967;-61
2021/11/13 07:08:48;;;;;;;7.90;6.47;;;7.20;99.90;;;;;;6225583;28;20995;-62
2021/11/13 07:11:53;;;;;;;8.87;6.30;;;7.20;99.90;;;;;;6225494;28;20471;-63
2021/11/13 07:14:56;;;;;;;10.77;7.07;;;7.20;99.90;;;;;;6224982;28;20806;-62
2021/11/13 07:18:01;;;;;;;8.10;6.73;;;7.20;99.90;;;;;;6248837;22;20471;-62
2021/11/13 07:21:07;;;;;;;8.40;6.40;;;7.10;99.90;;;;;;6250291;28;20471;-62
2021/11/13 07:24:10;;;;;;;6.67;5.97;;;7.00;99.90;;;;;;6249825;28;20482;-63
2021/11/13 07:27:15;;;;;;;11.40;7.13;;;7.00;99.90;;;;;;6249794;28;20482;-62
2021/11/13 07:30:21;;;;;;;9.50;6.47;;;7.10;99.90;;;;;;6249932;28;20474;-62
2021/11/13 07:33:24;;;;;;;7.23;5.43;;;7.10;99.90;;;;;;6249647;28;20470;-63
2021/11/13 07:36:28;;;;;;;6.90;6.10;;;7.10;99.90;;;;;;6249377;28;20540;-62
2021/11/13 07:39:31;;;;;;;9.47;7.07;;;7.10;99.90;;;;;;6249653;28;20463;-63
2021/11/13 07:42:35;;;;;;;12.27;8.10;;;7.00;99.90;;;;;;6249868;28;20562;-63
2021/11/13 07:45:39;;;;;;;8.67;7.00;;;7.00;99.90;;;;;;6249882;28;20982;-61
2021/11/13 07:48:42;;;;;;;7.33;6.13;;;7.10;99.90;;;;;;6249645;28;20485;-62
2021/11/13 07:51:45;;;;;;;8.53;6.17;;;7.10;99.90;;;;;;6250176;28;20482;-62
2021/11/13 07:54:48;;;;;;;11.50;7.23;;;7.20;99.90;;;;;;6249260;28;20477;-62
2021/11/13 07:57:53;;;;;;;10.10;7.93;;;7.20;99.90;;;;;;6249053;28;20467;-62
2021/11/13 08:00:57;;;;;;;8.73;6.47;;;7.20;99.90;;;;;;6246469;28;20478;-62
2021/11/13 08:04:00;;;;;;;9.90;7.00;;;7.30;99.90;;;;;;6248651;28;20478;-62
2021/11/13 08:07:04;;;;;;;11.57;6.67;;;7.30;99.90;;;;;;6246879;28;20949;-62
2021/11/13 08:10:08;;;;;;;7.37;6.57;;;7.40;99.90;;;;;;6249524;28;20899;-62
2021/11/13 08:13:15;;;;;;;9.83;6.27;;;7.40;99.90;;;;;;6249112;28;20447;-62
2021/11/13 08:16:21;;;;;;;10.83;6.13;;;7.40;99.90;;;;;;6248759;28;20985;-62
2021/11/13 08:19:25;;;;;;;9.60;7.30;;;7.40;99.90;;;;;;6249073;28;20507;-63
2021/11/13 08:22:28;;;;;;;9.97;6.90;;;7.40;99.90;;;;;;6249182;28;20505;-62
2021/11/13 08:25:32;;;;;;;8.97;5.83;;;7.50;99.90;;;;;;6248883;28;20471;-62
2021/11/13 08:28:36;;;;;;;10.67;6.90;;;7.40;99.90;;;;;;6248402;28;20773;-63
2021/11/13 08:31:40;;;;;;;9.90;8.17;;;7.30;99.90;;;;;;6246327;28;20473;-63
2021/11/13 08:34:43;;;;;;;9.47;7.23;;;7.30;99.90;;;;;;6250247;28;20794;-63
2021/11/13 08:37:47;;;;;;;9.97;6.80;;;7.30;99.90;;;;;;6253113;28;20471;-63
2021/11/13 08:40:53;;;;;;;15.10;6.27;;;7.20;99.90;;;;;;6252611;28;20798;-63
2021/11/13 08:43:57;;;;;;;10.20;6.57;;;7.20;99.90;;;;;;6252562;28;20805;-63
2021/11/13 08:47:00;;;;;;;12.07;7.17;;;7.20;99.90;;;;;;6252436;28;20478;-63
2021/11/13 08:50:05;;;;;;;7.50;6.30;;;7.20;99.90;;;;;;6253236;28;20482;-63
2021/11/13 08:53:09;;;;;;;10.40;7.80;;;7.20;99.90;;;;;;6252796;28;20946;-63
2021/11/13 08:56:12;;;;;;;12.17;7.30;;;7.20;99.90;;;;;;6252762;28;20478;-62
2021/11/13 08:59:16;;;;;;;8.87;7.10;;;7.10;99.90;;;;;;6253817;28;20471;-62
2021/11/13 09:02:25;;;;;;;13.57;7.90;;;7.00;99.90;;;;;;6253362;28;20471;-62
2021/11/13 09:05:28;;;;;;;10.60;7.00;;;7.10;99.90;;;;;;6252724;28;20817;-62
2021/11/13 09:08:32;;;;;;;12.10;7.23;;;7.20;99.90;;;;;;6253421;28;20475;-62
2021/11/13 09:11:37;;;;;;;8.43;6.77;;;7.20;99.90;;;;;;6248329;28;20470;-62
2021/11/13 09:14:42;;;;;;;12.63;6.90;;;7.20;99.90;;;;;;6253360;28;20483;-63
2021/11/13 09:17:51;;;;;;;6.97;5.63;;;7.30;99.90;;;;;;6252387;28;21001;-62
2021/11/13 09:20:55;;;;;;;10.93;6.57;;;7.30;99.90;;;;;;6252434;28;20613;-62
2021/11/13 09:23:59;;;;;;;6.93;6.00;;;7.40;99.90;;;;;;6252727;28;20487;-63
2021/11/13 09:27:02;;;;;;;11.10;7.83;;;7.40;99.90;;;;;;6253156;28;20820;-62
2021/11/13 09:30:11;;;;;;;10.10;6.80;;;7.40;99.90;;;;;;6252582;28;20946;-62
2021/11/13 09:33:15;;;;;;;5.87;5.20;;;7.40;99.90;;;;;;6252132;28;20479;-62
2021/11/13 09:36:20;;;;;;;9.40;7.10;;;7.60;99.90;;;;;;6251940;28;20490;-62
2021/11/13 09:39:24;;;;;;;8.37;6.23;;;7.60;99.90;;;;;;6252448;28;20963;-63
2021/11/13 09:42:28;;;;;;;7.80;6.10;;;7.70;99.90;;;;;;6252611;28;20509;-63
2021/11/13 09:45:33;;;;;;;7.63;5.60;;;7.70;99.90;;;;;;6251694;28;20537;-63
2021/11/13 09:48:39;;;;;;;7.40;6.10;;;7.70;99.90;;;;;;6251605;28;20977;-63
2021/11/13 09:51:43;;;;;;;7.53;6.73;;;7.70;99.90;;;;;;6251713;28;20467;-63
2021/11/13 09:54:46;;;;;;;7.90;6.50;;;7.70;99.90;;;;;;6251354;28;20811;-63
2021/11/13 09:57:50;;;;;;;9.10;6.67;;;7.60;99.90;;;;;;6250799;28;20475;-63
2021/11/13 10:00:55;;;;;;;8.87;6.90;;;7.70;99.90;;;;;;6251280;28;20577;-63
2021/11/13 10:03:58;;;;;;;7.17;6.17;;;7.70;99.90;;;;;;6251120;28;20479;-62
2021/11/13 10:07:01;;;;;;;7.27;6.30;;;7.70;99.90;;;;;;6249405;28;20483;-64
2021/11/13 10:10:06;;;;;;;7.13;6.13;;;7.80;99.90;;;;;;6225413;28;20476;-63
2021/11/13 10:13:24;;;;;;;7.57;6.33;;;7.80;99.90;;;;;;6270201;28;20450;-64
2021/11/13 10:16:34;;;;;;;7.10;5.77;;;7.90;99.90;;;;;;6263986;28;20470;-66
2021/11/13 10:19:37;;;;;;;8.30;6.17;;;7.90;99.90;;;;;;6274322;28;20466;-65
2021/11/13 10:22:43;;;;;;;9.10;6.80;;;8.00;99.90;;;;;;6272476;28;20473;-64
2021/11/13 10:25:57;;;;;;;10.83;7.83;;;8.00;99.90;;;;;;6272036;28;20807;-63
2021/11/13 10:29:02;;;;;;;8.20;6.90;;;8.00;99.90;;;;;;6275880;28;20478;-63
2021/11/13 10:32:09;;;;;;;9.20;7.30;;;7.90;99.90;;;;;;6250919;28;20475;-62
2021/11/13 10:35:17;;;;;;;9.00;8.07;;;7.90;99.90;;;;;;6250793;28;20963;-63
2021/11/13 10:38:22;;;;;;;8.47;7.60;;;7.90;99.90;;;;;;6260111;28;20478;-63
2021/11/13 10:41:25;;;;;;;8.87;7.63;;;7.90;99.90;;;;;;6264574;28;20492;-63
2021/11/13 10:44:31;;;;;;;9.33;7.57;;;8.00;99.90;;;;;;6271039;28;20986;-63
2021/11/13 10:47:37;;;;;;;7.67;5.90;;;8.10;99.90;;;;;;6249750;28;20490;-64
2021/11/13 10:50:42;;;;;;;7.60;6.60;;;8.30;99.90;;;;;;6248625;28;20475;-63
2021/11/13 10:53:46;;;;;;;7.53;6.63;;;8.40;99.90;;;;;;6248919;28;20470;-63
2021/11/13 10:56:52;;;;;;;7.67;6.13;;;8.50;99.90;;;;;;6248620;28;20483;-61
2021/11/13 11:00:11;;;;;;;10.70;7.53;;;8.40;99.90;;;;;;6248961;28;20521;-62
2021/11/13 11:03:15;;;;;;;11.00;6.93;;;8.30;99.90;;;;;;6249321;28;20471;-61
2021/11/13 11:06:23;;;;;;;9.53;7.20;;;8.30;99.90;;;;;;6249811;28;20812;-62
2021/11/13 11:09:30;;;;;;;10.30;8.30;;;8.30;99.90;;;;;;6250134;28;20541;-63
2021/11/13 11:12:34;;;;;;;9.57;6.93;;;8.40;99.90;;;;;;6249861;28;20475;-61
2021/11/13 11:15:41;;;;;;;9.53;7.57;;;8.40;99.90;;;;;;6253447;28;20474;-63
2021/11/13 11:19:03;;;;;;;7.73;6.93;;;8.40;99.90;;;;;;6273554;28;20477;-62
2021/11/13 11:22:08;;;;;;;9.90;7.00;;;8.30;99.90;;;;;;6273600;28;20469;-61
2021/11/13 11:25:17;;;;;;;8.80;6.70;;;8.40;99.90;;;;;;6274431;28;20620;-61
2021/11/13 11:28:20;;;;;;;11.50;7.57;;;8.50;99.90;;;;;;6274171;28;20512;-63
2021/11/13 11:31:40;;;;;;;8.07;7.27;;;8.40;99.90;;;;;;6274583;28;20454;-63
2021/11/13 11:34:46;;;;;;;11.77;7.93;;;8.40;99.90;;;;;;6274098;28;20467;-63
2021/11/13 11:37:51;;;;;;;11.53;7.27;;;8.30;99.90;;;;;;6274727;28;20473;-67
2021/11/13 11:40:54;;;;;;;7.63;6.83;;;8.30;99.90;;;;;;6274686;28;20481;-62
2021/11/13 11:43:58;;;;;;;8.80;7.20;;;8.30;99.90;;;;;;6274572;28;20478;-62
2021/11/13 11:47:02;;;;;;;7.83;7.03;;;8.10;99.90;;;;;;6274416;28;20474;-63
2021/11/13 11:50:10;;;;;;;10.93;7.67;;;8.10;99.90;;;;;;6259578;28;20967;-62
2021/11/13 11:53:15;;;;;;;9.50;7.33;;;8.10;99.90;;;;;;6249407;28;20466;-61
2021/11/13 11:56:18;;;;;;;10.50;8.60;;;8.10;99.90;;;;;;6268365;28;20950;-63
2021/11/13 11:59:23;;;;;;;8.57;7.67;;;7.90;99.90;;;;;;6272940;28;20480;-64
2021/11/13 12:02:35;;;;;;;8.30;7.50;;;7.80;99.90;;;;;;6272414;28;20477;-63
2021/11/13 12:05:40;;;;;;;9.87;8.40;;;7.90;99.90;;;;;;6271412;28;20473;-63
2021/11/13 12:08:44;;;;;;;11.10;7.73;;;8.00;99.90;;;;;;6268313;28;20808;-63
2021/11/13 12:12:15;;;;;;;12.60;9.57;;;8.00;99.90;;;;;;6303572;28;20465;-61
2021/11/13 12:15:22;;;;;;;9.90;7.70;;;8.10;99.90;;;;;;6300092;28;20948;-62
2021/11/13 12:18:27;;;;;;;10.60;7.97;;;8.20;99.90;;;;;;6271910;28;20473;-62
2021/11/13 12:21:32;;;;;;;8.67;7.87;;;8.30;99.90;;;;;;6278250;28;20478;-62
2021/11/13 12:24:38;;;;;;;10.40;9.23;;;8.30;99.90;;;;;;6273466;28;20489;-61
2021/11/13 12:27:43;;;;;;;12.83;9.23;;;8.30;99.90;;;;;;6278465;28;20470;-61
2021/11/13 12:30:49;;;;;;;9.10;8.03;;;8.30;99.90;;;;;;6278238;28;20553;-61
2021/11/13 12:34:13;;;;;;;9.50;7.50;;;8.30;99.90;;;;;;6278906;28;20489;-61
2021/11/13 12:37:23;;;;;;;7.87;7.03;;;8.40;99.90;;;;;;6278176;28;20451;-61
2021/11/13 12:40:38;;;;;;;9.67;7.73;;;8.50;99.90;;;;;;6277992;28;20493;-61
2021/11/13 12:44:08;;;;;;;11.60;7.80;;;8.50;99.90;;;;;;6278217;28;20470;-62
2021/11/13 12:47:23;;;;;;;11.23;8.87;;;8.50;99.90;;;;;;6277719;28;20469;-63
2021/11/13 12:50:29;;;;;;;8.87;7.57;;;8.50;99.90;;;;;;6267724;28;20479;-61
2021/11/13 12:53:51;;;;;;;10.93;8.70;;;8.40;99.90;;;;;;6253843;28;20481;-61
2021/11/13 12:56:59;;;;;;;11.00;8.13;;;8.40;99.90;;;;;;6270901;28;20470;-61
2021/11/13 13:00:07;;;;;;;9.77;8.03;;;8.20;99.90;;;;;;6276713;28;20469;-61
2021/11/13 13:03:35;;;;;;;11.03;8.80;;;8.00;99.90;;;;;;6261769;28;20902;-60
2021/11/13 13:06:43;;;;;;;9.50;8.43;;;8.00;99.90;;;;;;6264957;28;20557;-61
2021/11/13 13:09:52;;;;;;;8.10;7.00;;;7.90;99.90;;;;;;6273148;28;20851;-62
2021/11/13 13:13:03;;;;;;;10.83;8.13;;;8.00;99.90;;;;;;6252547;28;20500;-61
2021/11/13 13:16:07;;;;;;;15.00;10.00;;;8.00;99.90;;;;;;6260272;28;20470;-60
2021/11/13 13:19:10;;;;;;;10.13;9.13;;;8.10;99.90;;;;;;6266532;28;20491;-62
2021/11/13 13:22:13;;;;;;;13.83;9.30;;;8.10;99.90;;;;;;6251952;28;20736;-62
2021/11/13 13:25:18;;;;;;;10.17;8.00;;;8.10;99.90;;;;;;6267374;28;20498;-61
2021/11/13 13:28:24;;;;;;;10.67;8.97;;;8.20;99.90;;;;;;6276619;28;20788;-61
2021/11/13 13:31:27;;;;;;;11.60;9.00;;;8.10;99.90;;;;;;6277127;28;20465;-62
2021/11/13 13:34:32;;;;;;;12.90;10.03;;;8.00;99.90;;;;;;6271584;28;20470;-61
2021/11/13 13:37:51;;;;;;;9.90;8.90;;;8.00;99.90;;;;;;6272368;28;20473;-62
2021/11/13 13:40:57;;;;;;;11.13;10.00;;;8.10;99.90;;;;;;6273546;28;20470;-61
2021/11/13 13:44:01;;;;;;;10.37;8.63;;;8.20;99.90;;;;;;6275485;28;20469;-61
2021/11/13 13:47:05;;;;;;;9.00;7.93;;;8.20;99.90;;;;;;6271899;28;20794;-62
2021/11/13 13:50:08;;;;;;;11.63;9.57;;;8.20;99.90;;;;;;6274690;28;20500;-62
2021/11/13 13:53:11;;;;;;;11.90;8.43;;;8.20;99.90;;;;;;6274821;28;20466;-62
2021/11/13 13:56:21;;;;;;;11.70;9.40;;;8.20;99.90;;;;;;6274962;28;20474;-62
2021/11/13 13:59:27;;;;;;;12.17;8.77;;;8.20;99.90;;;;;;6273095;28;20493;-62
2021/11/13 14:02:31;;;;;;;13.93;9.37;;;8.10;99.90;;;;;;6258325;28;20468;-62
2021/11/13 14:05:35;;;;;;;9.73;7.83;;;8.00;99.90;;;;;;6275019;28;20500;-62
2021/11/13 14:08:45;;;;;;;11.80;9.20;;;8.00;99.90;;;;;;6275055;28;20501;-62
2021/11/13 14:11:55;;;;;;;10.57;9.17;;;8.00;99.90;;;;;;6274922;28;20478;-63
2021/11/13 14:15:10;;;;;;;11.00;9.40;;;8.00;99.90;;;;;;6274519;28;20494;-62
2021/11/13 14:18:15;;;;;;;10.10;9.07;;;8.00;99.90;;;;;;6265499;28;20479;-62
2021/11/13 14:21:24;;;;;;;11.20;10.10;;;7.90;99.90;;;;;;6274405;28;20482;-62
2021/11/13 14:24:28;;;;;;;13.53;9.77;;;7.80;99.90;;;;;;6274292;28;20481;-62
2021/11/13 14:27:42;;;;;;;12.30;11.10;;;7.70;99.90;;;;;;6273079;28;20493;-62
2021/11/13 14:30:46;;;;;;;12.40;10.60;;;7.70;99.90;;;;;;6274328;28;20473;-62
2021/11/13 14:33:53;;;;;;;14.17;10.47;;;7.60;99.90;;;;;;6274828;28;20996;-61
2021/11/13 14:37:00;;;;;;;11.87;10.67;;;7.60;99.90;;;;;;6275102;28;20612;-61
2021/11/13 14:40:08;;;;;;;10.50;9.27;;;7.50;99.90;;;;;;6275776;28;20474;-61
2021/11/13 14:43:23;;;;;;;14.07;11.50;;;7.40;99.90;;;;;;6275388;28;20496;-61
2021/11/13 14:46:26;;;;;;;13.37;10.93;;;7.40;99.90;;;;;;6274838;28;20486;-61
2021/11/13 14:49:31;;;;;;;12.80;10.50;;;7.40;99.90;;;;;;6275475;28;20469;-61
2021/11/13 14:52:36;;;;;;;12.80;9.93;;;7.30;99.90;;;;;;6274980;28;20778;-62
2021/11/13 14:55:40;;;;;;;22.57;16.17;;;7.20;99.90;;;;;;6275184;28;20478;-62
2021/11/13 14:58:58;;;;;;;16.87;13.53;;;7.00;99.90;;;;;;6274923;28;20783;-62
2021/11/13 15:02:01;;;;;;;12.00;9.70;;;7.10;99.90;;;;;;6274807;28;20474;-62
2021/11/13 15:05:06;;;;;;;14.00;12.50;;;7.10;99.90;;;;;;6259781;28;20459;-62
2021/11/13 15:08:23;;;;;;;12.47;11.13;;;7.20;99.90;;;;;;6250172;28;20478;-61
2021/11/13 15:11:26;;;;;;;12.97;11.10;;;7.20;99.90;;;;;;6269201;28;20458;-62
2021/11/13 15:14:35;;;;;;;11.37;9.70;;;7.20;99.90;;;;;;6274883;28;20934;-61
2021/11/13 15:17:41;;;;;;;13.43;11.20;;;7.20;99.90;;;;;;6261416;28;20471;-61
2021/11/13 15:20:50;;;;;;;13.30;10.60;;;7.30;99.90;;;;;;6250206;28;20475;-62
2021/11/13 15:23:53;;;;;;;14.10;12.50;;;7.30;99.90;;;;;;6250372;28;20463;-62
2021/11/13 15:27:02;;;;;;;12.70;10.43;;;7.30;99.90;;;;;;6249699;28;20569;-62
2021/11/13 15:30:14;;;;;;;11.23;9.10;;;7.40;99.90;;;;;;6250378;28;20812;-62
2021/11/13 15:33:20;;;;;;;14.27;9.93;;;7.50;99.90;;;;;;6267006;28;20474;-62
2021/11/13 15:36:24;;;;;;;15.50;11.20;;;7.50;99.90;;;;;;6265086;28;20474;-63
2021/11/13 15:39:27;;;;;;;12.43;9.90;;;7.50;99.90;;;;;;6274223;28;20473;-62
2021/11/13 15:42:34;;;;;;;12.13;10.30;;;7.50;99.90;;;;;;6274582;28;20481;-62
2021/11/13 15:45:47;;;;;;;12.50;10.57;;;7.60;99.90;;;;;;6278918;28;20547;-63
2021/11/13 15:48:53;;;;;;;15.70;11.43;;;7.70;99.90;;;;;;6279487;28;20466;-63
2021/11/13 15:51:57;;;;;;;13.30;10.73;;;7.70;99.90;;;;;;6278958;28;20474;-63
2021/11/13 15:55:00;;;;;;;13.50;9.83;;;7.70;99.90;;;;;;6279184;28;20787;-62
2021/11/13 15:58:04;;;;;;;9.57;8.17;;;7.70;99.90;;;;;;6265935;28;20475;-63
2021/11/13 16:01:09;;;;;;;11.60;9.63;;;7.60;99.90;;;;;;6254526;28;20479;-62
2021/11/13 16:04:14;;;;;;;14.93;13.23;;;7.60;99.90;;;;;;6254976;28;20505;-63
2021/11/13 16:07:17;;;;;;;13.30;11.30;;;7.60;99.90;;;;;;6254014;28;20494;-63
2021/11/13 16:10:21;;;;;;;14.30;12.03;;;7.70;99.90;;;;;;6265861;28;21273;-62